Time;durP1;ratioP1;P1;durP2;ratioP2;P2;SDS_P1;SDS_P2;PMS_P1;PMS_P2;Temp;Humidity;BMP_temperature;BMP_pressure;BME280_temperature;BME280_humidity;BME280_pressure;Samples;Min_cycle;Max_cycle;Signal;HPM_P1;HPM_P2
2023/05/01 00:02:20;;;;;;;13.47;12.67;;;13.90;27.00;;;;;;5071187;28;20198;-63
2023/05/01 00:04:46;;;;;;;14.47;13.50;;;14.00;26.90;;;;;;5071254;28;20897;-63
2023/05/01 00:07:11;;;;;;;13.13;12.23;;;14.20;26.50;;;;;;5069449;28;20244;-63
2023/05/01 00:09:37;;;;;;;13.80;13.00;;;14.30;26.10;;;;;;5090413;28;20214;-63
2023/05/01 00:12:03;;;;;;;13.63;12.93;;;14.40;26.20;;;;;;5070312;28;20186;-64
2023/05/01 00:14:29;;;;;;;13.17;12.33;;;14.50;25.50;;;;;;5071240;28;20211;-64
2023/05/01 00:16:55;;;;;;;13.83;12.93;;;14.50;25.50;;;;;;5070563;28;20479;-64
2023/05/01 00:19:20;;;;;;;14.60;13.63;;;14.60;25.50;;;;;;5069797;28;20224;-64
2023/05/01 00:21:47;;;;;;;14.17;13.37;;;14.60;25.30;;;;;;5069654;28;20182;-63
2023/05/01 00:24:14;;;;;;;13.57;12.73;;;14.70;25.30;;;;;;5071645;28;20175;-64
2023/05/01 00:26:39;;;;;;;14.43;13.53;;;14.70;25.20;;;;;;5070902;28;20424;-64
2023/05/01 00:29:06;;;;;;;13.77;12.67;;;14.70;25.30;;;;;;5069850;28;20420;-63
2023/05/01 00:31:31;;;;;;;14.37;13.40;;;14.70;25.40;;;;;;5070565;28;20170;-63
2023/05/01 00:33:57;;;;;;;13.20;12.40;;;14.70;25.50;;;;;;5070184;28;20467;-56
2023/05/01 00:36:23;;;;;;;12.87;11.87;;;14.70;25.50;;;;;;5069611;28;20178;-56
2023/05/01 00:38:48;;;;;;;14.53;13.53;;;14.70;25.40;;;;;;5067012;28;20175;-56
2023/05/01 00:41:14;;;;;;;12.83;12.03;;;14.70;25.50;;;;;;5070489;28;20225;-56
2023/05/01 00:43:39;;;;;;;13.47;12.67;;;14.70;25.50;;;;;;5068023;28;20295;-56
2023/05/01 00:46:06;;;;;;;13.43;12.73;;;14.80;25.30;;;;;;5066445;28;20615;-56
2023/05/01 00:48:32;;;;;;;13.77;12.87;;;14.80;25.40;;;;;;5068613;28;20181;-56
2023/05/01 00:50:59;;;;;;;12.53;11.83;;;14.70;25.40;;;;;;5070727;28;20405;-56
2023/05/01 00:53:27;;;;;;;13.10;12.20;;;14.70;25.60;;;;;;5069087;28;20194;-56
2023/05/01 00:55:55;;;;;;;13.30;12.43;;;14.60;25.50;;;;;;5068463;28;20534;-55
2023/05/01 00:58:21;;;;;;;13.70;12.90;;;14.60;25.40;;;;;;5069210;28;20761;-56
2023/05/01 01:00:48;;;;;;;13.90;12.87;;;14.60;25.50;;;;;;5086091;28;20412;-56
2023/05/01 01:03:14;;;;;;;13.07;12.27;;;14.60;25.50;;;;;;5064766;28;20174;-56
2023/05/01 01:05:52;;;;;;;13.00;12.20;;;14.60;25.50;;;;;;5066446;28;20427;-55
2023/05/01 01:08:39;;;;;;;13.43;12.63;;;14.60;25.30;;;;;;5069211;28;20263;-55
2023/05/01 01:11:32;;;;;;;13.40;12.67;;;14.60;25.30;;;;;;5068418;28;20436;-56
2023/05/01 01:14:08;;;;;;;13.47;12.57;;;14.60;25.50;;;;;;5066441;28;20468;-56
2023/05/01 01:16:58;;;;;;;12.60;11.90;;;14.60;25.60;;;;;;5067583;28;20436;-56
2023/05/01 01:20:01;;;;;;;13.27;12.50;;;14.60;25.60;;;;;;5068687;28;20452;-56
2023/05/01 01:22:28;;;;;;;12.80;12.03;;;14.60;25.60;;;;;;5065681;28;20912;-56
2023/05/01 01:25:26;;;;;;;13.47;12.67;;;14.60;25.30;;;;;;5067234;28;20912;-56
2023/05/01 01:27:54;;;;;;;13.70;12.90;;;14.60;25.30;;;;;;5069517;28;20413;-56
2023/05/01 01:30:35;;;;;;;14.07;13.20;;;14.60;25.40;;;;;;5066302;28;20565;-56
2023/05/01 01:33:35;;;;;;;12.53;11.63;;;14.60;25.30;;;;;;5066627;28;20439;-56
2023/05/01 01:36:06;;;;;;;13.33;12.57;;;14.60;25.30;;;;;;5069231;28;20958;-55
2023/05/01 01:38:42;;;;;;;13.90;12.90;;;14.60;25.20;;;;;;5071885;28;20405;-56
2023/05/01 01:41:13;;;;;;;12.70;11.90;;;14.60;25.30;;;;;;5068951;28;20769;-55
2023/05/01 01:43:43;;;;;;;12.07;11.27;;;14.50;25.20;;;;;;5068845;28;20541;-55
2023/05/01 01:46:10;;;;;;;12.30;11.60;;;14.50;25.60;;;;;;5069236;28;20851;-56
2023/05/01 01:48:41;;;;;;;13.60;12.80;;;14.50;25.60;;;;;;5070336;28;20418;-55
2023/05/01 01:51:14;;;;;;;13.70;13.00;;;14.50;25.80;;;;;;5070075;28;20408;-55
2023/05/01 01:53:43;;;;;;;13.80;12.60;;;14.50;25.90;;;;;;5067775;28;20460;-56
2023/05/01 01:56:10;;;;;;;13.80;13.03;;;14.50;26.00;;;;;;5068266;28;20404;-55
2023/05/01 01:58:37;;;;;;;13.80;13.00;;;14.50;26.00;;;;;;5066439;28;20435;-55
2023/05/01 02:01:05;;;;;;;12.90;12.10;;;14.60;26.00;;;;;;5065156;28;21005;-63
2023/05/01 02:03:32;;;;;;;11.60;10.93;;;14.50;25.90;;;;;;5070402;28;20450;-63
2023/05/01 02:05:59;;;;;;;13.73;12.70;;;14.50;25.90;;;;;;5070528;28;20423;-64
2023/05/01 02:08:29;;;;;;;13.70;12.57;;;14.50;26.10;;;;;;5071570;28;20937;-63
2023/05/01 02:10:58;;;;;;;13.07;12.17;;;14.50;26.20;;;;;;5071134;28;20463;-62
2023/05/01 02:13:27;;;;;;;13.57;12.60;;;14.50;26.20;;;;;;5069551;28;20531;-63
2023/05/01 02:15:53;;;;;;;13.23;12.43;;;14.50;26.20;;;;;;5070215;28;20405;-63
2023/05/01 02:18:20;;;;;;;13.33;12.53;;;14.50;26.20;;;;;;5070114;28;20608;-63
2023/05/01 02:20:46;;;;;;;14.50;13.60;;;14.50;26.20;;;;;;5070077;28;20821;-63
2023/05/01 02:23:12;;;;;;;13.60;12.70;;;14.40;26.20;;;;;;5070443;28;20773;-63
2023/05/01 02:25:38;;;;;;;14.03;13.27;;;14.50;26.20;;;;;;5070172;28;20430;-63
2023/05/01 02:28:11;;;;;;;14.77;13.67;;;14.50;26.20;;;;;;5070927;28;20913;-62
2023/05/01 02:30:37;;;;;;;15.33;14.47;;;14.40;26.20;;;;;;5069638;28;20409;-63
2023/05/01 02:33:07;;;;;;;13.83;13.07;;;14.50;26.20;;;;;;5067897;28;20415;-63
2023/05/01 02:35:39;;;;;;;15.13;14.23;;;14.50;26.20;;;;;;5085509;28;20408;-63
2023/05/01 02:38:05;;;;;;;14.50;13.53;;;14.50;26.20;;;;;;5067465;28;20413;-63
2023/05/01 02:40:31;;;;;;;14.30;13.60;;;14.50;26.20;;;;;;5067008;28;20414;-54
2023/05/01 02:43:00;;;;;;;14.37;13.37;;;14.50;26.20;;;;;;5062800;28;20171;-55
2023/05/01 02:45:27;;;;;;;14.03;13.23;;;14.50;26.20;;;;;;5062557;28;20920;-54
2023/05/01 02:47:56;;;;;;;13.63;12.90;;;14.50;26.20;;;;;;5062167;28;20920;-53
2023/05/01 02:50:22;;;;;;;13.43;12.50;;;14.50;26.20;;;;;;5062943;28;20404;-56
2023/05/01 02:52:50;;;;;;;14.57;13.77;;;14.60;26.30;;;;;;5064757;28;20412;-63
2023/05/01 02:55:16;;;;;;;14.47;13.57;;;14.60;26.30;;;;;;5067062;28;20455;-63
2023/05/01 02:57:42;;;;;;;13.53;12.77;;;14.60;26.30;;;;;;5066357;28;20455;-63
2023/05/01 03:00:12;;;;;;;13.73;13.00;;;14.60;26.40;;;;;;5066694;28;20448;-63
2023/05/01 03:02:41;;;;;;;14.73;13.80;;;14.50;26.30;;;;;;5067131;28;20532;-62
2023/05/01 03:05:07;;;;;;;14.20;13.30;;;14.50;26.20;;;;;;5066479;28;20876;-56
2023/05/01 03:07:35;;;;;;;13.67;12.83;;;14.50;26.20;;;;;;5064061;28;20960;-56
2023/05/01 03:10:03;;;;;;;13.67;12.97;;;14.60;26.30;;;;;;5063805;28;20523;-56
2023/05/01 03:12:32;;;;;;;15.03;14.27;;;14.60;26.30;;;;;;5063331;28;20977;-62
2023/05/01 03:14:58;;;;;;;13.70;12.50;;;14.60;26.30;;;;;;5067364;28;20478;-64
2023/05/01 03:17:24;;;;;;;14.60;13.50;;;14.60;26.10;;;;;;5067445;28;20435;-63
2023/05/01 03:19:50;;;;;;;14.40;13.50;;;14.60;26.10;;;;;;5067389;28;20413;-62
2023/05/01 03:22:16;;;;;;;14.23;13.43;;;14.60;26.30;;;;;;5062645;28;20179;-55
2023/05/01 03:24:41;;;;;;;15.47;14.47;;;14.50;26.20;;;;;;5065204;28;20409;-56
2023/05/01 03:27:07;;;;;;;15.07;14.10;;;14.50;26.40;;;;;;5065308;28;20231;-56
2023/05/01 03:29:33;;;;;;;15.33;14.13;;;14.50;26.40;;;;;;5064573;28;20424;-56
2023/05/01 03:31:59;;;;;;;15.87;14.87;;;14.40;27.00;;;;;;5063859;28;20178;-56
2023/05/01 03:34:26;;;;;;;14.07;13.23;;;14.30;27.00;;;;;;5067251;28;20505;-56
2023/05/01 03:36:52;;;;;;;15.80;14.70;;;14.00;27.80;;;;;;5066499;28;20202;-55
2023/05/01 03:39:18;;;;;;;15.40;14.40;;;13.90;28.70;;;;;;5066600;28;20439;-56
2023/05/01 03:41:44;;;;;;;16.33;15.40;;;13.80;28.10;;;;;;5068098;28;20897;-56
2023/05/01 03:44:09;;;;;;;16.00;14.90;;;13.80;28.40;;;;;;5049622;28;20181;-56
2023/05/01 03:46:35;;;;;;;14.50;13.63;;;13.70;28.80;;;;;;5069999;28;20657;-63
2023/05/01 03:49:00;;;;;;;15.17;14.23;;;13.70;29.10;;;;;;5070910;28;20514;-63
2023/05/01 03:51:26;;;;;;;14.37;13.57;;;13.80;28.70;;;;;;5071322;28;20174;-62
2023/05/01 03:53:55;;;;;;;15.60;14.70;;;13.80;28.00;;;;;;5072492;28;20206;-63
2023/05/01 03:56:21;;;;;;;14.60;13.70;;;14.00;27.60;;;;;;5072544;28;20776;-56
2023/05/01 03:58:46;;;;;;;14.93;13.93;;;14.10;27.30;;;;;;5070961;28;20409;-62
2023/05/01 04:01:12;;;;;;;14.73;13.77;;;14.20;27.20;;;;;;5072964;28;20199;-63
2023/05/01 04:03:38;;;;;;;15.67;14.70;;;14.20;26.80;;;;;;5073094;28;20591;-56
2023/05/01 04:06:04;;;;;;;13.43;12.70;;;14.30;26.50;;;;;;5073057;28;20179;-56
2023/05/01 04:08:30;;;;;;;13.77;12.87;;;14.20;26.50;;;;;;5071673;28;20478;-56
2023/05/01 04:10:55;;;;;;;13.57;12.77;;;14.30;26.20;;;;;;5071259;28;20194;-56
2023/05/01 04:13:21;;;;;;;14.17;13.37;;;14.30;26.10;;;;;;5073273;28;20222;-56
2023/05/01 04:15:46;;;;;;;14.73;13.87;;;14.30;26.10;;;;;;5073130;28;20198;-56
2023/05/01 04:18:12;;;;;;;14.10;13.20;;;14.40;26.20;;;;;;5070491;28;20173;-56
2023/05/01 04:20:39;;;;;;;13.70;12.90;;;14.30;26.70;;;;;;5073459;28;20171;-64
2023/05/01 04:23:05;;;;;;;13.87;13.17;;;14.30;26.90;;;;;;5073068;28;20189;-63
2023/05/01 04:25:30;;;;;;;14.10;13.30;;;14.40;26.80;;;;;;5074510;28;20413;-64
2023/05/01 04:27:56;;;;;;;15.10;14.20;;;14.40;26.70;;;;;;5074314;28;20454;-63
2023/05/01 04:30:21;;;;;;;15.07;14.00;;;14.40;26.20;;;;;;5073403;28;20308;-56
2023/05/01 04:32:47;;;;;;;14.67;13.83;;;14.20;26.10;;;;;;5072086;28;20167;-56
2023/05/01 04:35:13;;;;;;;13.53;12.83;;;14.00;26.40;;;;;;5072949;28;20210;-63
2023/05/01 04:37:39;;;;;;;14.43;13.63;;;13.90;26.80;;;;;;5073643;28;20181;-63
2023/05/01 04:40:05;;;;;;;15.30;14.50;;;13.70;27.40;;;;;;5073846;28;20174;-63
2023/05/01 04:42:31;;;;;;;14.20;13.50;;;13.60;27.90;;;;;;5073738;28;20175;-63
2023/05/01 04:45:00;;;;;;;15.27;14.47;;;13.80;27.90;;;;;;5072491;28;20400;-62
2023/05/01 04:47:27;;;;;;;14.40;13.60;;;13.90;27.80;;;;;;5071967;28;20416;-63
2023/05/01 04:49:52;;;;;;;14.37;13.57;;;14.00;27.40;;;;;;5072374;28;20423;-63
2023/05/01 04:52:18;;;;;;;13.80;13.10;;;14.10;27.30;;;;;;5073222;28;20416;-63
2023/05/01 04:54:44;;;;;;;13.90;13.00;;;14.20;27.20;;;;;;5074099;28;20202;-63
2023/05/01 04:57:09;;;;;;;12.90;12.20;;;14.20;27.10;;;;;;5057406;28;20163;-63
2023/05/01 04:59:35;;;;;;;13.73;12.93;;;14.30;26.80;;;;;;5073189;28;20175;-63
2023/05/01 05:02:00;;;;;;;13.27;12.57;;;14.20;26.40;;;;;;5073257;28;20178;-60
2023/05/01 05:04:26;;;;;;;13.27;12.57;;;14.10;26.00;;;;;;5073178;28;20171;-60
2023/05/01 05:06:52;;;;;;;14.17;13.27;;;14.00;26.50;;;;;;5073311;28;20634;-60
2023/05/01 05:09:18;;;;;;;13.10;12.33;;;13.90;27.20;;;;;;5073633;28;20428;-60
2023/05/01 05:11:43;;;;;;;12.67;11.97;;;14.00;27.60;;;;;;5077632;28;20258;-61
2023/05/01 05:14:09;;;;;;;12.80;12.10;;;14.10;26.50;;;;;;5076483;28;20194;-61
2023/05/01 05:16:35;;;;;;;14.00;13.20;;;14.20;26.00;;;;;;5071674;28;20182;-55
2023/05/01 05:19:01;;;;;;;13.23;12.50;;;14.10;26.00;;;;;;5073632;28;20895;-53
2023/05/01 05:21:26;;;;;;;13.37;12.57;;;14.20;26.00;;;;;;5072781;28;20709;-55
2023/05/01 05:23:52;;;;;;;12.67;12.07;;;14.20;26.00;;;;;;5071549;28;20178;-53
2023/05/01 05:26:17;;;;;;;12.90;12.20;;;14.20;25.50;;;;;;5072500;28;20183;-55
2023/05/01 05:28:44;;;;;;;12.20;11.50;;;14.30;25.40;;;;;;5074046;28;20591;-55
2023/05/01 05:31:10;;;;;;;12.07;11.47;;;14.30;25.00;;;;;;5075225;28;20202;-56
2023/05/01 05:33:35;;;;;;;12.67;11.97;;;14.30;25.00;;;;;;5075562;28;20467;-54
2023/05/01 05:36:01;;;;;;;11.90;11.20;;;14.40;25.00;;;;;;5074423;28;20424;-55
2023/05/01 05:38:27;;;;;;;13.33;12.60;;;14.40;25.10;;;;;;5075347;28;20232;-55
2023/05/01 05:40:53;;;;;;;12.10;11.43;;;14.40;25.10;;;;;;5072414;28;20906;-54
2023/05/01 05:43:19;;;;;;;12.87;12.07;;;14.40;25.20;;;;;;5072432;28;20643;-54
2023/05/01 05:45:45;;;;;;;12.60;11.83;;;14.40;25.20;;;;;;5072844;28;20412;-53
2023/05/01 05:48:11;;;;;;;14.10;13.30;;;14.50;25.30;;;;;;5072422;28;20202;-54
2023/05/01 05:50:36;;;;;;;12.70;12.00;;;14.30;26.10;;;;;;5074936;28;20626;-54
2023/05/01 05:53:02;;;;;;;11.93;11.23;;;14.20;26.00;;;;;;5090430;28;20210;-53
2023/05/01 05:55:28;;;;;;;12.37;11.67;;;14.20;26.40;;;;;;5071902;28;20182;-53
2023/05/01 05:57:53;;;;;;;12.73;11.67;;;14.20;26.80;;;;;;5071485;28;20171;-54
2023/05/01 06:00:19;;;;;;;14.00;13.10;;;14.20;27.10;;;;;;5074203;28;20167;-54
2023/05/01 06:02:44;;;;;;;13.50;12.60;;;14.20;27.40;;;;;;5075159;28;20178;-60
2023/05/01 06:05:11;;;;;;;13.43;12.73;;;14.20;27.40;;;;;;5074054;28;20178;-58
2023/05/01 06:07:36;;;;;;;12.10;11.50;;;14.20;27.40;;;;;;5070406;28;20206;-63
2023/05/01 06:10:05;;;;;;;12.73;11.90;;;14.30;27.00;;;;;;5070109;28;20471;-63
2023/05/01 06:12:31;;;;;;;12.33;11.63;;;14.40;27.00;;;;;;5072306;28;20248;-63
2023/05/01 06:14:57;;;;;;;12.60;11.90;;;14.40;27.10;;;;;;5073912;28;20543;-63
2023/05/01 06:17:24;;;;;;;11.87;11.27;;;14.40;27.00;;;;;;5073976;28;20423;-63
2023/05/01 06:19:52;;;;;;;12.13;11.43;;;14.50;26.90;;;;;;5073866;28;20421;-63
2023/05/01 06:22:19;;;;;;;12.50;11.70;;;14.50;26.20;;;;;;5074046;28;20441;-63
2023/05/01 06:24:45;;;;;;;12.20;11.50;;;14.50;26.20;;;;;;5074200;28;20471;-63
2023/05/01 06:27:11;;;;;;;11.93;11.33;;;14.50;26.80;;;;;;5075349;28;20780;-63
2023/05/01 06:29:37;;;;;;;13.00;12.20;;;14.50;27.00;;;;;;5075857;28;20417;-63
2023/05/01 06:32:03;;;;;;;13.43;12.57;;;14.50;27.10;;;;;;5075180;28;20229;-63
2023/05/01 06:34:29;;;;;;;11.70;11.10;;;14.40;27.30;;;;;;5075391;28;20195;-63
2023/05/01 06:36:55;;;;;;;13.20;12.40;;;14.40;26.90;;;;;;5075909;28;20408;-64
2023/05/01 06:39:21;;;;;;;14.53;13.73;;;14.40;26.90;;;;;;5075811;28;20420;-64
2023/05/01 06:41:47;;;;;;;13.67;12.87;;;14.10;28.10;;;;;;5075064;28;20412;-64
2023/05/01 06:44:13;;;;;;;12.90;12.10;;;14.10;28.10;;;;;;5075824;28;20193;-59
2023/05/01 06:46:38;;;;;;;14.07;13.20;;;14.20;28.00;;;;;;5075535;28;20856;-49
2023/05/01 06:49:05;;;;;;;13.80;13.03;;;14.20;28.40;;;;;;5075224;28;20186;-54
2023/05/01 06:51:31;;;;;;;13.70;12.70;;;14.20;28.10;;;;;;5075032;28;20208;-50
2023/05/01 06:53:57;;;;;;;13.77;12.97;;;13.90;29.00;;;;;;5074288;28;20545;-49
2023/05/01 06:56:22;;;;;;;13.10;12.47;;;13.80;28.80;;;;;;5074529;28;20174;-55
2023/05/01 06:58:48;;;;;;;14.47;13.60;;;13.80;29.10;;;;;;5073613;28;20262;-55
2023/05/01 07:01:14;;;;;;;14.77;13.97;;;13.80;28.60;;;;;;5092995;28;20189;-56
2023/05/01 07:03:40;;;;;;;14.33;13.33;;;13.80;29.00;;;;;;5075085;28;20239;-56
2023/05/01 07:06:05;;;;;;;15.37;14.40;;;13.90;28.80;;;;;;5072886;28;20420;-55
2023/05/01 07:08:31;;;;;;;13.87;13.03;;;13.80;29.70;;;;;;5074539;28;20191;-56
2023/05/01 07:10:57;;;;;;;13.23;12.53;;;13.70;30.50;;;;;;5072540;28;20230;-58
2023/05/01 07:13:23;;;;;;;13.27;12.53;;;13.70;29.60;;;;;;5073665;28;20275;-56
2023/05/01 07:15:49;;;;;;;13.13;12.50;;;13.70;29.10;;;;;;5090761;28;20612;-56
2023/05/01 07:18:15;;;;;;;12.43;11.83;;;13.70;29.80;;;;;;5074915;28;20413;-55
2023/05/01 07:20:41;;;;;;;13.47;12.67;;;13.70;29.20;;;;;;5074507;28;20613;-56
2023/05/01 07:23:08;;;;;;;14.10;13.30;;;13.70;28.90;;;;;;5074428;28;20866;-56
2023/05/01 07:25:36;;;;;;;11.43;10.83;;;13.80;29.30;;;;;;5075030;28;20421;-55
2023/05/01 07:28:04;;;;;;;13.57;12.87;;;13.80;28.50;;;;;;5072301;28;21149;-57
2023/05/01 07:30:29;;;;;;;12.93;12.17;;;13.60;29.70;;;;;;5073981;28;20421;-55
2023/05/01 07:32:56;;;;;;;11.90;11.30;;;13.50;29.30;;;;;;5070949;28;20512;-55
2023/05/01 07:35:23;;;;;;;13.10;12.40;;;13.50;28.90;;;;;;5072950;28;20637;-55
2023/05/01 07:37:50;;;;;;;13.40;12.50;;;13.50;29.30;;;;;;5073955;28;20466;-63
2023/05/01 07:40:16;;;;;;;12.97;12.27;;;13.50;29.30;;;;;;5073687;28;20693;-63
2023/05/01 07:42:42;;;;;;;14.60;13.70;;;13.50;29.50;;;;;;5073985;28;20442;-62
2023/05/01 07:45:08;;;;;;;14.40;13.50;;;13.50;29.90;;;;;;5074671;28;20409;-62
2023/05/01 07:47:34;;;;;;;13.93;13.13;;;13.60;30.50;;;;;;5074903;28;20508;-63
2023/05/01 07:50:02;;;;;;;14.27;13.57;;;13.70;29.80;;;;;;5074707;28;20420;-63
2023/05/01 07:52:28;;;;;;;13.77;13.07;;;13.60;29.70;;;;;;5073300;28;20182;-63
2023/05/01 07:54:54;;;;;;;16.07;15.07;;;13.60;30.00;;;;;;5074320;28;20956;-63
2023/05/01 07:57:22;;;;;;;15.27;14.43;;;13.60;30.40;;;;;;5074503;28;20507;-63
2023/05/01 07:59:47;;;;;;;13.60;12.90;;;13.50;30.80;;;;;;5074382;28;20413;-64
2023/05/01 08:02:15;;;;;;;13.43;12.53;;;13.60;30.10;;;;;;5073974;28;20409;-63
2023/05/01 08:04:41;;;;;;;14.33;13.53;;;13.70;30.00;;;;;;5074216;28;20613;-62
2023/05/01 08:07:07;;;;;;;13.80;13.00;;;13.70;29.90;;;;;;5073420;28;20478;-63
2023/05/01 08:09:32;;;;;;;13.13;12.30;;;13.60;30.00;;;;;;5074206;28;20228;-62
2023/05/01 08:11:58;;;;;;;12.67;12.07;;;13.70;30.10;;;;;;5073583;28;20223;-62
2023/05/01 08:14:23;;;;;;;14.50;13.70;;;13.60;30.60;;;;;;5074148;28;20765;-62
2023/05/01 08:16:54;;;;;;;14.07;13.17;;;13.60;30.60;;;;;;5073406;28;20185;-62
2023/05/01 08:19:19;;;;;;;14.10;13.20;;;13.60;31.10;;;;;;5092262;28;20224;-62
2023/05/01 08:21:45;;;;;;;12.93;12.03;;;13.70;31.00;;;;;;5073347;28;20920;-63
2023/05/01 08:24:11;;;;;;;13.80;12.80;;;13.70;30.00;;;;;;5073998;28;20175;-61
2023/05/01 08:26:37;;;;;;;13.60;12.70;;;13.80;29.50;;;;;;5073597;28;20608;-61
2023/05/01 08:29:02;;;;;;;13.30;12.50;;;13.80;29.00;;;;;;5073815;28;20419;-62
2023/05/01 08:31:28;;;;;;;13.03;12.23;;;13.90;29.00;;;;;;5073206;28;20842;-62
2023/05/01 08:33:54;;;;;;;12.93;12.23;;;14.00;29.00;;;;;;5072359;28;20198;-62
2023/05/01 08:36:20;;;;;;;12.93;12.13;;;14.00;28.90;;;;;;5073911;28;20277;-62
2023/05/01 08:38:45;;;;;;;12.63;11.93;;;13.90;29.40;;;;;;5072881;28;20177;-62
2023/05/01 08:41:20;;;;;;;13.10;12.30;;;13.90;29.40;;;;;;5072931;28;20968;-62
2023/05/01 08:43:47;;;;;;;13.37;12.57;;;14.10;29.00;;;;;;5072684;28;20178;-62
2023/05/01 08:46:20;;;;;;;12.30;11.60;;;14.10;29.40;;;;;;5074060;28;20500;-62
2023/05/01 08:48:47;;;;;;;12.70;11.90;;;14.10;29.20;;;;;;5073028;28;20429;-63
2023/05/01 08:51:16;;;;;;;14.10;13.10;;;14.10;29.30;;;;;;5072966;28;20401;-62
2023/05/01 08:53:43;;;;;;;13.03;12.33;;;14.20;29.10;;;;;;5072965;28;20821;-62
2023/05/01 08:56:12;;;;;;;13.37;12.37;;;14.20;29.00;;;;;;5073838;28;20409;-62
2023/05/01 08:58:40;;;;;;;12.80;11.97;;;14.30;29.10;;;;;;5073726;28;20424;-62
2023/05/01 09:01:08;;;;;;;13.87;12.97;;;14.40;29.30;;;;;;5073121;28;20545;-63
2023/05/01 09:03:36;;;;;;;15.37;14.30;;;14.50;28.80;;;;;;5073005;28;20431;-62
2023/05/01 09:06:02;;;;;;;13.30;12.60;;;14.60;28.40;;;;;;5073311;28;20408;-63
2023/05/01 09:08:28;;;;;;;14.40;13.60;;;14.60;28.40;;;;;;5073436;28;20444;-63
2023/05/01 09:10:57;;;;;;;13.00;12.30;;;14.60;28.40;;;;;;5073385;28;20468;-63
2023/05/01 09:13:25;;;;;;;13.20;12.40;;;14.70;28.30;;;;;;5072993;28;20185;-63
2023/05/01 09:15:50;;;;;;;14.17;13.47;;;14.70;28.30;;;;;;5072504;28;20412;-62
2023/05/01 09:18:16;;;;;;;13.77;12.97;;;14.80;27.90;;;;;;5072778;28;20417;-56
2023/05/01 09:20:42;;;;;;;13.87;13.07;;;14.80;28.20;;;;;;5072952;28;20177;-56
2023/05/01 09:23:08;;;;;;;13.40;12.60;;;14.80;28.10;;;;;;5072656;28;20488;-56
2023/05/01 09:25:34;;;;;;;11.90;11.30;;;14.80;28.20;;;;;;5073056;28;20223;-56
2023/05/01 09:28:00;;;;;;;12.00;11.10;;;14.90;27.80;;;;;;5055678;28;20438;-56
2023/05/01 09:30:30;;;;;;;11.87;11.17;;;14.90;27.80;;;;;;5071930;28;20171;-56
2023/05/01 09:33:09;;;;;;;12.40;11.70;;;15.00;27.80;;;;;;5068060;28;20444;-55
2023/05/01 09:35:52;;;;;;;12.27;11.67;;;15.00;27.60;;;;;;5069257;28;20412;-56
2023/05/01 09:38:27;;;;;;;12.50;11.80;;;15.10;27.90;;;;;;5069311;28;20913;-57
2023/05/01 09:40:55;;;;;;;12.17;11.40;;;15.20;27.50;;;;;;5071668;28;20407;-56
2023/05/01 09:43:28;;;;;;;14.37;13.27;;;15.40;27.20;;;;;;5089206;28;20405;-57
2023/05/01 09:46:05;;;;;;;11.30;10.70;;;15.50;27.50;;;;;;5071750;28;20496;-63
2023/05/01 09:48:31;;;;;;;13.67;12.97;;;15.70;27.10;;;;;;5071879;28;20411;-63
2023/05/01 09:50:57;;;;;;;14.70;13.80;;;15.90;27.20;;;;;;5090226;28;20798;-63
2023/05/01 09:53:39;;;;;;;14.13;13.20;;;16.00;26.90;;;;;;5055922;28;20448;-63
2023/05/01 09:56:05;;;;;;;13.80;13.10;;;16.10;26.60;;;;;;5075529;28;20412;-62
2023/05/01 09:58:31;;;;;;;13.30;12.50;;;16.10;26.60;;;;;;5076570;28;20421;-62
2023/05/01 10:00:57;;;;;;;14.70;13.60;;;16.10;26.30;;;;;;5075693;28;20507;-62
2023/05/01 10:03:22;;;;;;;11.70;10.70;;;16.10;26.40;;;;;;5074659;28;20295;-62
2023/05/01 10:05:48;;;;;;;13.13;12.33;;;16.00;26.40;;;;;;5076033;28;20612;-62
2023/05/01 10:08:16;;;;;;;13.50;12.70;;;15.90;27.20;;;;;;5076779;28;20179;-63
2023/05/01 10:10:45;;;;;;;12.90;12.20;;;15.80;27.10;;;;;;5076576;28;20561;-62
2023/05/01 10:13:17;;;;;;;12.53;11.80;;;15.80;27.10;;;;;;5075482;28;20408;-63
2023/05/01 10:15:45;;;;;;;12.73;12.03;;;15.80;27.10;;;;;;5076144;28;20425;-62
2023/05/01 10:18:13;;;;;;;12.80;12.10;;;15.70;27.10;;;;;;5075281;28;20425;-62
2023/05/01 10:20:39;;;;;;;13.50;12.70;;;15.80;27.10;;;;;;5075954;28;20768;-63
2023/05/01 10:23:05;;;;;;;13.50;12.70;;;15.80;27.10;;;;;;5075426;28;20444;-63
2023/05/01 10:25:31;;;;;;;12.97;12.27;;;15.90;27.20;;;;;;5075857;28;20420;-62
2023/05/01 10:27:58;;;;;;;14.40;13.50;;;15.90;27.20;;;;;;5075489;28;20481;-63
2023/05/01 10:30:25;;;;;;;13.27;12.27;;;15.90;26.90;;;;;;5075657;28;20763;-62
2023/05/01 10:32:52;;;;;;;15.17;13.97;;;15.90;27.20;;;;;;5075146;28;20415;-63
2023/05/01 10:35:22;;;;;;;14.90;14.10;;;15.90;27.20;;;;;;5075055;28;20460;-62
2023/05/01 10:37:57;;;;;;;14.23;13.43;;;15.90;27.20;;;;;;5075826;28;20408;-62
2023/05/01 10:40:38;;;;;;;14.57;13.73;;;15.90;27.20;;;;;;5075361;28;20415;-62
2023/05/01 10:43:27;;;;;;;14.07;13.20;;;15.80;27.40;;;;;;5074895;28;20416;-62
2023/05/01 10:46:17;;;;;;;14.07;12.97;;;15.90;26.80;;;;;;5075769;28;20401;-63
2023/05/01 10:48:43;;;;;;;14.63;13.63;;;15.90;27.20;;;;;;5063002;28;20417;-62
2023/05/01 10:51:12;;;;;;;13.20;12.40;;;15.90;27.20;;;;;;5073901;28;20409;-62
2023/05/01 10:53:39;;;;;;;14.37;13.57;;;15.80;27.20;;;;;;5075151;28;20293;-63
2023/05/01 10:56:25;;;;;;;15.13;14.20;;;16.00;27.30;;;;;;5075212;28;20770;-63
2023/05/01 10:58:56;;;;;;;14.70;13.80;;;16.10;26.90;;;;;;5074565;28;20417;-62
2023/05/01 11:01:27;;;;;;;13.90;13.10;;;16.10;26.50;;;;;;5075287;28;20413;-62
2023/05/01 11:03:58;;;;;;;15.13;14.20;;;16.20;26.40;;;;;;5075475;28;20500;-62
2023/05/01 11:06:25;;;;;;;13.70;12.90;;;16.20;26.30;;;;;;5073577;28;20797;-63
2023/05/01 11:08:50;;;;;;;15.00;14.13;;;16.20;26.10;;;;;;5074095;28;20417;-63
2023/05/01 11:11:20;;;;;;;13.80;13.10;;;16.20;26.00;;;;;;5093435;28;20842;-63
2023/05/01 11:14:13;;;;;;;14.23;13.40;;;16.30;26.00;;;;;;5092747;28;20237;-63
2023/05/01 11:16:38;;;;;;;14.53;13.63;;;16.40;25.90;;;;;;5070994;28;20511;-63
2023/05/01 11:19:20;;;;;;;12.37;11.57;;;16.40;26.20;;;;;;5075089;28;20497;-63
2023/05/01 11:21:46;;;;;;;12.77;11.93;;;16.40;25.50;;;;;;5074588;28;20635;-63
2023/05/01 11:24:11;;;;;;;12.47;11.57;;;16.50;25.50;;;;;;5074984;28;20437;-63
2023/05/01 11:26:39;;;;;;;12.83;11.93;;;16.50;25.30;;;;;;5073301;28;20474;-62
2023/05/01 11:29:05;;;;;;;12.90;11.90;;;16.50;25.20;;;;;;5072611;28;20210;-62
2023/05/01 11:31:31;;;;;;;11.80;11.00;;;16.40;25.40;;;;;;5073983;28;20421;-63
2023/05/01 11:33:59;;;;;;;13.97;13.10;;;16.40;25.80;;;;;;5073588;28;20895;-63
2023/05/01 11:36:25;;;;;;;14.53;13.40;;;16.50;26.20;;;;;;5072838;28;20483;-61
2023/05/01 11:39:00;;;;;;;15.00;13.70;;;16.50;25.50;;;;;;5072815;28;20480;-60
2023/05/01 11:41:26;;;;;;;12.30;11.20;;;16.60;25.40;;;;;;5072659;28;20413;-61
2023/05/01 11:43:56;;;;;;;12.40;11.50;;;16.60;25.60;;;;;;5070474;28;20436;-61
2023/05/01 11:46:27;;;;;;;12.17;11.27;;;16.60;25.60;;;;;;5073060;28;20424;-61
2023/05/01 11:48:58;;;;;;;12.23;11.33;;;16.60;25.40;;;;;;5074239;28;20465;-61
2023/05/01 11:51:25;;;;;;;11.33;10.53;;;16.70;25.40;;;;;;5072679;28;20425;-60
2023/05/01 11:54:08;;;;;;;12.20;11.17;;;16.70;25.40;;;;;;5072699;28;20824;-60
2023/05/01 11:56:36;;;;;;;13.40;12.60;;;16.70;25.50;;;;;;5072376;28;20405;-61
2023/05/01 11:59:11;;;;;;;14.50;13.70;;;16.70;25.30;;;;;;5071375;28;20416;-60
2023/05/01 12:01:39;;;;;;;13.70;12.90;;;16.70;25.10;;;;;;5073238;28;20818;-60
2023/05/01 12:04:07;;;;;;;13.50;12.60;;;16.70;25.30;;;;;;5073198;28;20408;-60
2023/05/01 12:06:43;;;;;;;12.80;11.90;;;16.70;25.20;;;;;;5072453;28;20452;-59
2023/05/01 12:09:14;;;;;;;13.33;12.47;;;16.70;25.40;;;;;;5071612;28;20436;-59
2023/05/01 12:11:40;;;;;;;12.97;12.07;;;16.60;25.40;;;;;;5071249;28;20439;-59
2023/05/01 12:14:06;;;;;;;12.13;11.43;;;16.60;25.20;;;;;;5072646;28;20453;-59
2023/05/01 12:16:32;;;;;;;11.97;11.27;;;16.60;25.40;;;;;;5072031;28;20413;-59
2023/05/01 12:18:58;;;;;;;12.70;11.90;;;16.60;25.10;;;;;;5071295;28;20440;-59
2023/05/01 12:21:25;;;;;;;12.47;11.57;;;16.60;25.00;;;;;;5072425;28;20655;-59
2023/05/01 12:23:53;;;;;;;11.40;10.70;;;16.70;25.20;;;;;;5072126;28;20182;-59
2023/05/01 12:26:24;;;;;;;13.30;12.40;;;16.70;25.20;;;;;;5072013;28;20455;-63
2023/05/01 12:29:02;;;;;;;11.40;10.60;;;16.70;25.00;;;;;;5088634;28;20760;-63
2023/05/01 12:31:28;;;;;;;12.77;11.77;;;16.70;25.40;;;;;;5073479;28;20412;-55
2023/05/01 12:34:06;;;;;;;12.53;11.73;;;16.80;25.10;;;;;;5072244;28;20914;-55